Time;durP1;ratioP1;P1;durP2;ratioP2;P2;SDS_P1;SDS_P2;PMS_P1;PMS_P2;Temp;Humidity;BMP_temperature;BMP_pressure;BME280_temperature;BME280_humidity;BME280_pressure;Samples;Min_cycle;Max_cycle;Signal;HPM_P1;HPM_P2
2021/11/22 00:01:22;;;;;;;3.20;2.80;;;13.50;99.90;;;14.62;55.67;101306.31;4909241;28;98675;-47
2021/11/22 00:03:48;;;;;;;3.80;2.80;;;13.50;99.90;;;14.65;55.55;101314.16;4899003;28;101080;-47
2021/11/22 00:06:14;;;;;;;3.37;2.43;;;13.50;99.90;;;14.67;55.58;101320.25;4912987;28;99304;-46
2021/11/22 00:08:40;;;;;;;4.00;3.33;;;13.60;99.90;;;14.68;55.35;101328.16;4901937;28;97941;-50
2021/11/22 00:11:06;;;;;;;4.87;2.90;;;13.60;99.90;;;14.67;55.70;101326.41;4906522;28;98962;-48
2021/11/22 00:13:32;;;;;;;2.50;2.30;;;13.50;99.90;;;14.64;55.69;101331.00;4902853;28;98993;-47
2021/11/22 00:15:58;;;;;;;5.50;2.97;;;13.50;99.90;;;14.61;55.63;101323.16;4906028;28;98090;-47
2021/11/22 00:18:24;;;;;;;4.63;2.80;;;13.40;99.90;;;14.63;55.59;101334.59;4902561;28;98876;-46
2021/11/22 00:20:51;;;;;;;4.80;2.87;;;13.50;99.90;;;14.61;55.58;101333.75;4904989;28;98360;-47
2021/11/22 00:23:17;;;;;;;3.90;2.93;;;13.50;99.90;;;14.61;55.62;101328.44;4903861;28;99723;-46
2021/11/22 00:25:43;;;;;;;3.50;2.70;;;13.50;99.90;;;14.63;55.60;101339.91;4900902;28;99224;-46
2021/11/22 00:28:09;;;;;;;3.40;2.40;;;13.60;99.90;;;14.61;55.37;101336.41;4904636;28;99052;-46
2021/11/22 00:30:35;;;;;;;4.53;2.70;;;13.50;99.90;;;14.61;55.56;101336.41;4906531;28;98186;-48
2021/11/22 00:33:02;;;;;;;2.87;2.17;;;13.50;99.90;;;14.61;55.60;101337.31;4907932;28;99767;-48
2021/11/22 00:35:33;;;;;;;3.80;2.77;;;13.50;99.90;;;14.64;55.29;101346.94;4894057;28;97833;-43
2021/11/22 00:38:08;;;;;;;4.40;3.23;;;13.50;99.90;;;14.65;55.27;101348.66;4906775;28;99084;-45
2021/11/22 00:40:36;;;;;;;2.73;2.03;;;13.50;99.90;;;14.65;55.25;101348.66;4920454;28;97983;-46
2021/11/22 00:43:04;;;;;;;2.53;2.10;;;13.50;99.90;;;14.70;55.18;101347.53;4905581;28;98635;-47
2021/11/22 00:45:31;;;;;;;4.33;2.43;;;13.70;99.90;;;14.72;55.46;101344.81;4906172;28;99931;-44
2021/11/22 00:47:57;;;;;;;3.10;2.13;;;13.70;99.90;;;14.74;55.32;101353.56;4909058;28;98475;-46
2021/11/22 00:50:23;;;;;;;2.70;2.07;;;13.70;99.90;;;14.77;55.30;101350.81;4903045;28;100450;-46
2021/11/22 00:52:49;;;;;;;3.73;2.13;;;13.70;99.90;;;14.83;54.95;101363.81;4916946;28;101925;-45
2021/11/22 00:55:15;;;;;;;2.43;1.93;;;13.90;99.90;;;14.85;54.77;101361.94;4902878;28;99344;-43
2021/11/22 00:57:41;;;;;;;2.70;2.07;;;13.90;99.90;;;14.91;54.72;101372.34;4900261;28;99311;-44
2021/11/22 01:00:11;;;;;;;2.63;2.20;;;14.00;99.90;;;14.92;54.61;101373.19;4919487;28;99081;-43
2021/11/22 01:02:38;;;;;;;4.90;3.20;;;13.90;99.90;;;14.93;54.36;101375.78;4898842;28;101010;-47
2021/11/22 01:05:05;;;;;;;3.33;2.33;;;13.90;99.90;;;14.86;54.67;101371.66;4907479;28;98712;-47
2021/11/22 01:07:31;;;;;;;4.30;2.30;;;13.70;99.90;;;14.85;54.80;101377.91;4898894;28;97387;-56
2021/11/22 01:09:57;;;;;;;2.73;2.50;;;13.70;99.90;;;14.81;54.80;101386.94;4902000;28;99394;-50
2021/11/22 01:12:28;;;;;;;7.07;4.07;;;13.70;99.90;;;14.78;54.58;101382.63;4917875;28;98488;-49
2021/11/22 01:14:59;;;;;;;5.20;3.80;;;13.60;99.90;;;14.75;54.39;101397.78;4918420;28;102500;-43
2021/11/22 01:17:25;;;;;;;2.77;2.03;;;13.50;99.90;;;14.71;55.08;101390.88;4916262;28;97415;-50
2021/11/22 01:19:53;;;;;;;7.60;4.00;;;13.50;99.90;;;14.69;53.79;101398.06;4904395;28;96830;-46
2021/11/22 01:22:24;;;;;;;4.87;2.83;;;13.50;99.90;;;14.64;55.03;101394.72;4904074;28;99670;-46
2021/11/22 01:24:51;;;;;;;2.60;1.73;;;13.50;99.90;;;14.64;55.11;101397.38;4900330;28;103341;-43
2021/11/22 01:27:17;;;;;;;4.07;2.60;;;13.50;99.90;;;14.65;55.20;101402.63;4906160;28;97288;-43
2021/11/22 01:29:44;;;;;;;3.87;2.97;;;13.50;99.90;;;14.68;55.09;101412.25;4901934;28;98654;-48
2021/11/22 01:32:10;;;;;;;7.77;3.17;;;13.60;99.90;;;14.70;55.11;101418.38;4912457;28;100125;-43
2021/11/22 01:34:36;;;;;;;5.37;3.73;;;13.70;99.90;;;14.72;54.42;101428.00;4897322;28;99142;-49
2021/11/22 01:37:02;;;;;;;2.43;2.17;;;13.70;99.90;;;14.73;54.87;101432.38;4905412;28;102570;-47
2021/11/22 01:39:28;;;;;;;5.20;3.43;;;13.70;99.90;;;14.72;54.69;101438.63;4897553;28;98276;-47
2021/11/22 01:41:54;;;;;;;7.17;4.63;;;13.70;99.90;;;14.70;54.56;101442.25;4906412;28;98536;-51
2021/11/22 01:44:20;;;;;;;6.77;3.20;;;13.60;99.90;;;14.61;54.96;101447.94;4905190;28;98444;-49
2021/11/22 01:46:49;;;;;;;6.47;3.90;;;13.50;99.90;;;14.53;54.24;101445.59;4916235;28;98378;-44
2021/11/22 01:49:19;;;;;;;3.10;2.40;;;13.40;99.90;;;14.40;55.17;101450.47;4907270;28;98573;-47
2021/11/22 01:51:45;;;;;;;4.33;3.03;;;13.30;99.90;;;14.39;55.32;101448.75;4901254;28;99692;-50
2021/11/22 01:54:13;;;;;;;2.53;2.10;;;13.20;99.90;;;14.36;55.73;101454.19;4909273;28;98252;-44
2021/11/22 01:56:39;;;;;;;6.20;3.33;;;13.20;99.90;;;14.35;55.68;101452.47;4905066;28;99473;-45
2021/11/22 01:59:06;;;;;;;7.23;3.53;;;13.30;99.90;;;14.38;55.64;101462.97;4906353;28;99416;-46
2021/11/22 02:01:32;;;;;;;8.10;4.63;;;13.30;99.90;;;14.25;54.97;101462.56;4906295;28;97780;-48
2021/11/22 02:03:57;;;;;;;5.83;3.73;;;13.20;99.90;;;14.25;55.14;101449.28;4911032;28;99218;-47
2021/11/22 02:06:23;;;;;;;2.80;2.40;;;13.10;99.90;;;14.22;55.94;101451.19;4919717;28;99649;-51
2021/11/22 02:08:50;;;;;;;4.37;2.60;;;13.10;99.90;;;14.27;55.88;101454.53;4900772;28;97800;-49
2021/11/22 02:11:17;;;;;;;11.40;5.20;;;13.20;99.90;;;14.28;54.22;101456.25;4910341;28;99649;-48
2021/11/22 02:13:43;;;;;;;7.73;5.13;;;13.20;99.90;;;14.26;55.23;101458.13;4902504;28;99470;-47
2021/11/22 02:16:09;;;;;;;6.17;3.67;;;13.20;99.90;;;14.31;55.92;101472.06;4903404;28;98764;-46
2021/11/22 02:18:34;;;;;;;6.13;3.30;;;13.20;99.90;;;14.26;55.72;101474.03;4902506;28;99842;-46
2021/11/22 02:21:01;;;;;;;7.60;4.67;;;13.20;99.90;;;14.22;55.86;101477.75;4919868;28;99859;-46
2021/11/22 02:23:27;;;;;;;3.10;2.73;;;13.10;99.90;;;14.22;56.00;101481.25;4916766;28;100115;-47
2021/11/22 02:25:53;;;;;;;8.43;5.50;;;13.20;99.90;;;14.21;55.85;101482.19;4904739;28;98963;-45
2021/11/22 02:28:19;;;;;;;4.90;2.43;;;13.20;99.90;;;14.18;55.93;101481.44;4920780;28;97547;-48
2021/11/22 02:30:48;;;;;;;10.17;5.23;;;13.20;99.90;;;14.21;55.97;101491.94;4904581;28;99209;-44
2021/11/22 02:33:21;;;;;;;6.60;4.93;;;13.20;99.90;;;14.19;55.91;101494.66;4921483;28;99494;-43
2021/11/22 02:35:51;;;;;;;7.23;4.77;;;13.20;99.90;;;14.31;55.66;101490.63;4903842;28;100365;-46
2021/11/22 02:38:22;;;;;;;5.03;3.83;;;13.30;99.90;;;14.34;55.96;101497.66;4909271;28;99191;-48
2021/11/22 02:40:48;;;;;;;4.83;4.17;;;13.30;99.90;;;14.39;55.64;101507.16;4915198;28;103579;-44
2021/11/22 02:43:15;;;;;;;12.03;7.40;;;13.40;99.90;;;14.39;55.37;101501.84;4906495;28;99047;-47
2021/11/22 02:45:42;;;;;;;8.20;6.00;;;13.40;99.90;;;14.44;54.12;101504.34;4907469;28;99308;-46
2021/11/22 02:48:08;;;;;;;15.77;7.10;;;13.40;99.90;;;14.49;55.30;101508.56;4923208;28;98852;-47
2021/11/22 02:50:34;;;;;;;5.70;3.97;;;13.40;99.90;;;14.47;55.52;101515.75;4923213;28;98405;-43
2021/11/22 02:53:01;;;;;;;12.60;8.63;;;13.50;99.90;;;14.37;50.03;101522.28;4933443;28;98433;-46
2021/11/22 02:55:27;;;;;;;11.67;9.10;;;13.50;99.90;;;14.30;55.04;101523.41;4930469;28;97192;-44
2021/11/22 02:57:53;;;;;;;11.77;6.83;;;13.20;99.90;;;14.36;55.54;101520.53;4930933;28;97137;-46
2021/11/22 03:00:24;;;;;;;10.13;9.00;;;13.40;99.90;;;14.37;53.70;101530.25;4938549;28;100428;-45
2021/11/22 03:02:51;;;;;;;10.70;7.17;;;13.40;99.90;;;14.36;55.92;101533.81;4909426;28;101410;-46
2021/11/22 03:05:18;;;;;;;13.17;7.90;;;13.40;99.90;;;14.37;55.02;101534.69;4935430;28;98088;-44
2021/11/22 03:07:45;;;;;;;8.73;6.13;;;13.40;99.90;;;14.37;55.63;101530.25;4944917;28;98283;-45
2021/11/22 03:10:14;;;;;;;6.93;4.67;;;13.40;99.90;;;14.43;55.76;101535.31;4944550;28;97543;-43
2021/11/22 03:12:42;;;;;;;11.43;7.77;;;13.50;99.90;;;14.40;55.35;101546.03;4928746;28;98876;-46
2021/11/22 03:15:14;;;;;;;13.63;9.83;;;13.50;99.90;;;14.29;55.80;101542.91;4937299;28;96756;-46
2021/11/22 03:17:41;;;;;;;19.67;12.10;;;13.40;99.90;;;14.31;54.05;101549.03;4928936;28;98747;-43
2021/11/22 03:20:09;;;;;;;16.00;11.07;;;13.50;99.90;;;14.40;54.33;101551.34;4929353;28;99877;-46
2021/11/22 03:22:36;;;;;;;4.97;3.27;;;13.60;99.90;;;14.49;55.58;101556.34;4927061;28;99435;-45
2021/11/22 03:25:03;;;;;;;15.87;10.43;;;13.80;99.90;;;14.39;53.66;101554.06;4927188;28;97057;-43
2021/11/22 03:27:30;;;;;;;22.60;14.27;;;13.90;99.90;;;14.64;53.99;101554.03;4926065;28;97768;-46
2021/11/22 03:29:55;;;;;;;12.87;10.27;;;14.10;99.90;;;14.81;52.95;101556.91;4928699;28;97414;-43
2021/11/22 03:32:21;;;;;;;6.37;5.70;;;14.30;99.90;;;14.81;54.56;101556.91;4927857;28;98518;-44
2021/11/22 03:34:47;;;;;;;6.03;4.07;;;14.20;99.90;;;14.85;54.35;101569.13;4945096;28;96778;-47
2021/11/22 03:37:14;;;;;;;5.10;4.57;;;14.20;99.90;;;14.98;54.02;101570.38;4915097;28;98066;-44
2021/11/22 03:39:45;;;;;;;5.37;4.30;;;14.40;99.90;;;15.00;53.68;101573.84;4933258;28;96795;-43
2021/11/22 03:42:15;;;;;;;7.00;5.27;;;14.40;99.90;;;15.25;53.35;101578.19;4931579;28;97414;-47
2021/11/22 03:44:41;;;;;;;4.90;4.20;;;14.80;99.90;;;15.33;52.45;101568.97;4930472;28;97880;-48
2021/11/22 03:47:07;;;;;;;15.47;11.70;;;15.00;99.90;;;15.39;48.30;101571.38;4933041;28;98227;-43
2021/11/22 03:49:34;;;;;;;11.43;10.07;;;15.10;98.30;;;15.50;51.49;101584.25;4939174;28;96952;-44
2021/11/22 03:52:02;;;;;;;7.83;5.67;;;15.20;99.20;;;15.55;52.35;101592.88;4939107;28;96809;-47
2021/11/22 03:54:28;;;;;;;12.73;11.03;;;15.20;99.90;;;15.61;47.95;101591.78;4932291;28;96863;-43
2021/11/22 03:56:54;;;;;;;13.77;12.30;;;15.30;98.30;;;15.83;49.51;101597.06;4928731;28;97541;-50
2021/11/22 03:59:20;;;;;;;4.73;3.87;;;15.70;98.20;;;16.13;50.93;101601.06;4926162;28;99836;-45
2021/11/22 04:01:46;;;;;;;5.07;3.97;;;16.00;99.90;;;16.26;50.50;101604.94;4928034;28;98041;-43
2021/11/22 04:04:12;;;;;;;4.80;4.10;;;16.20;99.50;;;16.31;50.26;101610.91;4940346;28;96973;-47
2021/11/22 04:06:38;;;;;;;11.37;10.20;;;16.20;98.30;;;16.31;48.15;101616.22;4941392;28;98858;-43
2021/11/22 04:09:06;;;;;;;4.03;3.60;;;16.20;97.30;;;16.45;49.92;101617.41;4927549;28;97654;-43
2021/11/22 04:11:34;;;;;;;13.47;12.10;;;16.30;98.70;;;16.38;48.49;101629.28;4937869;28;97548;-44
2021/11/22 04:14:01;;;;;;;4.87;3.73;;;16.30;96.30;;;16.52;50.07;101625.06;4928144;28;97005;-47
2021/11/22 04:16:27;;;;;;;3.97;3.60;;;16.40;98.90;;;16.68;49.31;101641.25;4919617;28;96685;-42
2021/11/22 04:18:53;;;;;;;4.90;3.60;;;16.60;98.80;;;16.76;49.18;101638.22;4933576;28;97590;-48
2021/11/22 04:21:23;;;;;;;3.63;3.33;;;16.80;98.40;;;16.86;49.03;101645.72;4940153;28;97130;-47
2021/11/22 04:23:50;;;;;;;4.70;3.50;;;16.90;98.10;;;16.98;48.48;101646.97;4926110;28;98279;-43
2021/11/22 04:26:18;;;;;;;3.77;3.40;;;17.10;97.90;;;16.93;48.42;101652.53;4935709;28;96830;-43
2021/11/22 04:28:45;;;;;;;3.47;3.17;;;17.00;96.80;;;16.98;48.63;101652.31;4930744;28;98702;-45
2021/11/22 04:31:12;;;;;;;4.57;4.17;;;16.90;98.10;;;16.98;48.79;101657.63;4935896;28;96825;-44
2021/11/22 04:33:38;;;;;;;4.57;3.97;;;16.90;98.00;;;16.98;48.70;101670.09;4943093;28;97463;-45
2021/11/22 04:36:06;;;;;;;3.60;3.30;;;16.90;97.50;;;16.94;48.60;101680.03;4948255;28;99060;-45
2021/11/22 04:38:33;;;;;;;3.83;3.40;;;16.80;97.90;;;16.88;48.74;101675.84;4927606;28;99165;-48
2021/11/22 04:40:59;;;;;;;4.07;3.67;;;16.70;98.30;;;16.96;48.46;101683.50;4936971;28;98698;-45
2021/11/22 04:43:25;;;;;;;3.87;3.40;;;16.90;98.10;;;16.89;48.68;101684.69;4930550;28;96896;-50
2021/11/22 04:45:51;;;;;;;5.30;4.77;;;16.80;97.40;;;16.81;48.43;101690.38;4933530;28;96965;-47
2021/11/22 04:48:17;;;;;;;3.93;3.40;;;16.60;96.50;;;16.77;49.04;101686.09;4946742;28;99026;-45
2021/11/22 04:50:43;;;;;;;3.93;3.43;;;16.50;98.50;;;16.75;48.91;101692.44;4924076;28;99279;-45
2021/11/22 04:53:09;;;;;;;3.67;2.90;;;16.50;98.30;;;16.78;49.12;101690.53;4931365;28;97124;-46
2021/11/22 04:55:35;;;;;;;7.67;6.13;;;16.60;98.50;;;16.75;48.79;101695.97;4930441;28;97924;-46
2021/11/22 04:58:02;;;;;;;4.47;3.83;;;16.60;96.20;;;16.61;49.36;101703.69;4928022;28;98212;-44
2021/11/22 05:00:28;;;;;;;7.37;6.67;;;16.20;98.20;;;16.44;49.52;101700.91;4932466;28;97332;-43
2021/11/22 05:02:54;;;;;;;3.73;3.33;;;15.90;97.80;;;16.36;50.09;101701.25;4929836;28;97864;-45
2021/11/22 05:05:21;;;;;;;3.67;2.90;;;15.90;99.20;;;16.29;50.08;101708.63;4930708;28;97303;-45
2021/11/22 05:07:48;;;;;;;4.60;3.30;;;15.80;99.80;;;16.19;50.47;101706.41;4925609;28;99512;-50
2021/11/22 05:10:15;;;;;;;3.33;3.03;;;15.70;98.30;;;16.05;50.78;101704.31;4938697;28;98551;-45
2021/11/22 05:12:41;;;;;;;8.30;7.03;;;15.40;99.00;;;16.00;50.91;101717.84;4921916;28;96989;-49
2021/11/22 05:15:07;;;;;;;11.40;8.80;;;15.40;99.40;;;15.93;49.17;101715.50;4936118;28;101403;-43
2021/11/22 05:17:36;;;;;;;7.53;6.57;;;15.30;97.90;;;15.77;51.16;101710.81;4924285;28;97849;-43
2021/11/22 05:20:04;;;;;;;2.97;2.67;;;15.00;99.10;;;15.77;51.93;101705.50;4932498;28;98546;-47
2021/11/22 05:22:30;;;;;;;4.20;3.40;;;15.10;99.90;;;15.74;51.77;101710.91;4916371;28;98151;-48
2021/11/22 05:24:57;;;;;;;3.33;2.90;;;15.10;99.40;;;15.75;52.03;101725.06;4927897;28;98229;-48
2021/11/22 05:27:27;;;;;;;3.53;3.23;;;15.10;99.90;;;15.69;52.08;101723.53;4934445;28;97752;-44
2021/11/22 05:29:55;;;;;;;3.07;2.77;;;15.00;99.80;;;15.62;52.09;101721.16;4928594;28;104127;-45
2021/11/22 05:32:21;;;;;;;4.93;3.10;;;14.90;99.90;;;15.55;52.30;101735.63;4943868;28;97070;-44
2021/11/22 05:34:51;;;;;;;4.83;4.43;;;14.80;99.90;;;15.59;52.10;101738.13;4928072;28;98037;-50
2021/11/22 05:37:17;;;;;;;2.47;2.27;;;14.90;99.60;;;15.60;52.21;101739.84;4945338;28;99635;-48
2021/11/22 05:39:45;;;;;;;6.80;6.10;;;14.90;99.90;;;15.56;49.13;101738.22;4927874;28;97847;-46
2021/11/22 05:42:12;;;;;;;3.20;2.93;;;15.00;97.70;;;15.59;52.28;101748.75;4944194;28;96891;-47
2021/11/22 05:44:38;;;;;;;2.90;2.60;;;14.90;99.80;;;15.59;52.48;101748.75;4927795;28;97093;-44
2021/11/22 05:47:07;;;;;;;3.43;2.67;;;14.90;99.90;;;15.64;52.22;101752.13;4940978;28;97704;-44
2021/11/22 05:49:35;;;;;;;5.83;3.90;;;15.10;99.90;;;15.63;51.44;101753.06;4927595;28;98852;-45
2021/11/22 05:52:04;;;;;;;4.70;4.23;;;15.10;98.90;;;15.61;51.95;101768.19;4930486;28;97198;-46
2021/11/22 05:54:32;;;;;;;4.17;3.77;;;14.90;98.90;;;15.52;52.36;101768.53;4928729;28;97038;-45
2021/11/22 05:57:00;;;;;;;5.73;3.87;;;14.70;99.90;;;15.47;52.58;101770.47;4924236;28;98872;-47
2021/11/22 05:59:26;;;;;;;2.33;2.10;;;14.60;99.80;;;15.45;53.10;101772.31;4926684;28;97123;-46
2021/11/22 06:01:53;;;;;;;4.67;3.53;;;14.60;99.90;;;15.43;52.71;101779.50;4945386;28;97261;-43
2021/11/22 06:04:19;;;;;;;6.00;4.63;;;14.60;99.50;;;15.28;50.52;101780.94;4932651;28;99274;-44
2021/11/22 06:06:45;;;;;;;2.87;2.20;;;14.40;98.70;;;15.31;53.12;101786.13;4930268;28;97811;-47
2021/11/22 06:09:11;;;;;;;2.73;2.50;;;14.40;99.90;;;15.29;53.35;101781.81;4937574;28;98393;-45
2021/11/22 06:11:37;;;;;;;6.90;4.90;;;14.40;99.90;;;15.22;53.02;101793.63;4924342;28;97492;-46
2021/11/22 06:14:03;;;;;;;2.80;2.53;;;14.30;99.30;;;15.22;53.29;101793.63;4928943;28;96943;-47
2021/11/22 06:16:29;;;;;;;6.20;5.30;;;14.30;99.90;;;15.07;52.18;101789.72;4927892;28;99214;-43
2021/11/22 06:18:55;;;;;;;7.63;5.80;;;14.10;99.40;;;15.05;53.56;101797.75;4932971;28;99952;-43
2021/11/22 06:21:21;;;;;;;5.10;3.80;;;14.00;99.90;;;14.99;53.77;101800.63;4932618;28;96925;-44
2021/11/22 06:23:47;;;;;;;8.00;5.57;;;14.00;99.90;;;14.99;53.50;101805.94;4933680;28;97443;-45
2021/11/22 06:26:13;;;;;;;4.50;4.10;;;14.10;99.90;;;14.97;53.78;101810.44;4926909;28;99545;-45
2021/11/22 06:28:39;;;;;;;5.33;4.13;;;14.10;99.90;;;14.94;53.85;101815.88;4928199;28;98210;-48
2021/11/22 06:31:05;;;;;;;7.50;6.77;;;14.10;99.90;;;14.91;52.31;101813.31;4939134;28;98328;-46
2021/11/22 06:33:31;;;;;;;5.87;4.80;;;14.00;99.90;;;14.97;53.78;101823.72;4940594;28;96762;-43
2021/11/22 06:35:57;;;;;;;8.63;7.80;;;14.10;99.90;;;14.96;53.07;101821.13;4929081;28;97462;-43
2021/11/22 06:38:25;;;;;;;6.20;5.37;;;14.10;99.90;;;14.93;54.07;101827.41;4938817;28;97342;-45
2021/11/22 06:40:51;;;;;;;8.00;7.20;;;14.00;99.90;;;14.86;52.75;101826.75;4925269;28;97277;-45
2021/11/22 06:43:17;;;;;;;3.87;3.53;;;14.00;99.90;;;14.88;54.27;101832.00;4933366;28;96725;-44
2021/11/22 06:45:43;;;;;;;3.60;3.20;;;14.00;99.90;;;14.84;53.98;101827.72;4927034;28;100867;-45
2021/11/22 06:48:09;;;;;;;4.10;3.70;;;13.90;99.90;;;14.86;54.30;101825.88;4931336;28;99195;-47
2021/11/22 06:50:35;;;;;;;7.63;6.93;;;14.00;99.90;;;14.79;53.26;101835.00;4931579;28;97321;-46
2021/11/22 06:53:02;;;;;;;5.20;4.70;;;13.90;99.90;;;14.80;54.31;101842.91;4923847;28;96788;-45
2021/11/22 06:55:28;;;;;;;7.40;6.73;;;13.90;99.90;;;14.75;53.81;101846.63;4928934;28;100335;-44
2021/11/22 06:57:54;;;;;;;3.27;2.97;;;13.80;99.90;;;14.71;54.45;101852.97;4932110;28;99944;-44
2021/11/22 07:00:21;;;;;;;7.63;6.80;;;13.70;99.90;;;14.70;54.49;101851.25;4933242;28;98473;-45
2021/11/22 07:02:51;;;;;;;3.83;1.97;;;13.70;99.90;;;14.71;54.79;101859.16;4929495;28;97551;-49
2021/11/22 07:05:21;;;;;;;8.03;7.33;;;13.70;99.90;;;14.67;53.38;101868.16;4930884;28;96978;-45
2021/11/22 07:07:48;;;;;;;4.10;3.80;;;13.70;99.90;;;14.68;54.55;101874.31;4922951;28;97237;-44
2021/11/22 07:10:16;;;;;;;7.60;6.03;;;13.70;99.90;;;14.53;54.19;101876.56;4926684;28;98787;-46
2021/11/22 07:12:42;;;;;;;8.10;7.30;;;13.60;99.90;;;14.52;54.36;101874.84;4935984;28;98254;-46
2021/11/22 07:15:09;;;;;;;7.13;6.43;;;13.50;99.90;;;14.36;53.50;101873.56;4935729;28;98616;-47
2021/11/22 07:17:35;;;;;;;2.40;2.20;;;13.30;99.90;;;14.45;55.47;101883.91;4947200;28;98695;-45
2021/11/22 07:20:01;;;;;;;4.90;4.50;;;13.50;99.90;;;14.40;54.91;101891.13;4934758;28;98075;-43
2021/11/22 07:22:27;;;;;;;4.40;3.57;;;13.40;99.90;;;14.40;55.16;101885.81;4929313;28;101819;-48
2021/11/22 07:24:53;;;;;;;3.63;3.07;;;13.40;99.90;;;14.38;55.11;101900.94;4938546;28;97800;-46
2021/11/22 07:27:25;;;;;;;3.70;3.33;;;13.40;99.90;;;14.34;53.42;101906.38;4935090;28;97584;-47
2021/11/22 07:29:51;;;;;;;2.47;2.27;;;13.50;99.90;;;14.58;54.76;101922.41;4926755;28;99601;-44
2021/11/22 07:32:17;;;;;;;2.13;1.93;;;13.80;99.90;;;14.61;54.55;101921.47;4936388;28;97147;-46
2021/11/22 07:34:43;;;;;;;2.20;2.00;;;14.00;99.90;;;14.78;54.09;101918.25;4928944;28;100253;-44
2021/11/22 07:37:09;;;;;;;2.37;2.17;;;14.30;99.90;;;14.86;54.01;101932.13;4928871;28;99214;-47
2021/11/22 07:39:35;;;;;;;2.13;1.97;;;14.30;99.90;;;14.74;52.58;101932.53;4924053;28;97014;-44
2021/11/22 07:42:01;;;;;;;4.63;4.00;;;14.10;99.90;;;14.62;53.10;101948.91;4926935;28;96930;-45
2021/11/22 07:44:28;;;;;;;5.63;5.20;;;13.90;99.30;;;14.79;51.96;101951.88;4931973;28;100600;-45
2021/11/22 07:46:56;;;;;;;1.70;1.60;;;14.10;98.60;;;14.94;53.90;101946.06;4947587;28;98466;-44
2021/11/22 07:49:22;;;;;;;1.50;1.40;;;14.30;99.90;;;15.21;53.34;101954.00;4935239;28;98364;-47
2021/11/22 07:51:49;;;;;;;1.90;1.53;;;14.80;99.90;;;15.45;52.59;101958.47;4928252;28;97065;-50
2021/11/22 07:54:15;;;;;;;1.87;1.27;;;15.20;99.90;;;15.84;51.69;101960.63;4904647;28;98624;-46
2021/11/22 07:56:43;;;;;;;1.67;1.20;;;15.70;99.90;;;16.05;50.83;101970.47;4919490;28;98553;-46
2021/11/22 07:59:08;;;;;;;1.73;1.37;;;16.00;99.40;;;16.32;50.12;101974.75;4907606;28;97620;-49
2021/11/22 08:01:35;;;;;;;1.50;1.40;;;16.40;99.00;;;16.49;49.52;101982.09;4904763;28;99195;-47
2021/11/22 08:04:01;;;;;;;4.13;3.60;;;16.60;98.30;;;16.60;48.10;101984.31;4910444;28;98661;-47
2021/11/22 08:06:27;;;;;;;1.37;1.27;;;16.70;96.70;;;16.77;48.55;101991.66;4919784;28;98499;-43
2021/11/22 08:08:52;;;;;;;2.30;1.90;;;16.90;97.90;;;16.81;45.61;101999.50;4914388;28;98543;-43
2021/11/22 08:13:50;;;;;;;1.40;1.30;;;16.80;97.70;;;16.83;48.60;102013.63;4905548;28;98569;-47
2021/11/22 08:16:17;;;;;;;1.60;1.50;;;16.80;97.40;;;16.87;47.85;102003.69;4909613;28;99974;-45
2021/11/22 08:18:44;;;;;;;1.50;1.40;;;16.80;96.10;;;16.66;48.09;102010.72;4921055;28;100083;-47
2021/11/22 08:21:11;;;;;;;2.67;2.43;;;16.50;96.60;;;16.79;48.55;102017.34;4911260;28;98248;-49
2021/11/22 08:23:38;;;;;;;2.13;1.63;;;16.70;97.70;;;16.87;48.12;102014.34;4903907;28;99425;-45
2021/11/22 08:26:06;;;;;;;3.33;3.00;;;16.90;96.70;;;16.99;47.86;102031.66;4895482;28;100502;-48
2021/11/22 08:28:33;;;;;;;1.10;0.93;;;17.00;96.20;;;17.04;47.79;102033.19;4903867;28;99514;-48
2021/11/22 08:30:59;;;;;;;1.50;1.40;;;17.10;97.00;;;17.05;47.61;102042.06;4908729;28;98156;-45
2021/11/22 08:33:25;;;;;;;2.63;2.43;;;17.10;96.50;;;17.01;47.36;102048.44;4906963;28;99182;-48
2021/11/22 08:35:51;;;;;;;3.70;3.40;;;17.00;95.90;;;16.98;47.56;102044.13;4903688;28;102619;-47
2021/11/22 08:38:18;;;;;;;1.60;1.50;;;16.90;94.60;;;16.94;48.05;102048.72;4906453;28;98700;-46
2021/11/22 08:40:47;;;;;;;1.37;1.20;;;16.80;97.20;;;16.98;47.71;102046.78;4903723;28;100490;-48
2021/11/22 08:43:16;;;;;;;1.03;0.97;;;16.90;97.20;;;17.07;47.84;102054.41;4905992;28;98929;-44
2021/11/22 08:45:47;;;;;;;1.40;1.00;;;17.00;97.20;;;17.10;47.39;102058.75;4907631;28;97419;-49
2021/11/22 08:48:15;;;;;;;1.80;1.20;;;17.10;96.90;;;17.01;47.66;102064.44;4907657;28;99590;-49
2021/11/22 08:50:41;;;;;;;5.87;5.37;;;16.90;96.60;;;16.86;46.83;102065.91;4904484;28;99073;-48
2021/11/22 08:53:07;;;;;;;5.53;5.13;;;16.70;94.30;;;16.91;46.98;102064.78;4905946;28;98711;-48
2021/11/22 08:55:34;;;;;;;1.70;1.60;;;16.80;96.60;;;16.99;47.39;102076.97;4909903;28;98729;-49
2021/11/22 08:58:00;;;;;;;1.67;1.57;;;16.90;95.60;;;16.81;47.23;102079.44;4896912;28;99212;-48
2021/11/22 09:00:34;;;;;;;1.40;1.30;;;16.60;95.80;;;16.82;47.98;102078.50;4901654;28;100788;-47
2021/11/22 09:03:00;;;;;;;1.30;1.20;;;16.60;97.30;;;16.94;47.60;102080.69;4904594;28;97997;-47
2021/11/22 09:05:27;;;;;;;6.17;5.67;;;16.90;96.60;;;16.86;45.29;102072.13;4908138;28;99365;-50
2021/11/22 09:07:53;;;;;;;2.13;1.33;;;16.80;92.60;;;16.81;47.55;102074.09;4908583;28;100793;-47
2021/11/22 09:10:21;;;;;;;2.47;2.27;;;16.60;96.60;;;16.88;47.77;102093.38;4908683;28;98766;-46
2021/11/22 09:12:48;;;;;;;1.33;1.23;;;16.80;97.00;;;16.91;47.57;102091.44;4904274;28;98295;-48
2021/11/22 09:15:14;;;;;;;1.40;1.30;;;16.80;96.60;;;16.99;47.37;102098.28;4907823;28;100177;-47
2021/11/22 09:17:40;;;;;;;1.10;1.00;;;17.00;96.60;;;16.99;47.43;102104.50;4918634;28;98979;-42
2021/11/22 09:20:09;;;;;;;1.20;1.10;;;17.00;96.60;;;17.12;46.93;102102.22;4920604;28;100100;-46
2021/11/22 09:22:35;;;;;;;1.23;1.13;;;17.10;96.40;;;17.21;46.54;102105.38;4901682;28;100411;-44
2021/11/22 09:25:04;;;;;;;3.63;3.33;;;17.30;95.90;;;17.21;46.27;102115.16;4906682;28;99021;-50
2021/11/22 09:27:30;;;;;;;1.30;1.20;;;17.30;94.20;;;17.29;46.42;102105.06;4920088;28;98947;-47
2021/11/22 09:29:56;;;;;;;0.80;0.80;;;17.30;96.00;;;17.32;46.74;102106.72;4904088;28;97172;-47
2021/11/22 09:32:22;;;;;;;1.53;1.43;;;17.40;95.90;;;17.30;47.14;102108.59;4906700;28;98749;-46
2021/11/22 09:34:49;;;;;;;7.03;5.77;;;17.30;95.50;;;17.22;42.96;102116.91;4903434;28;99607;-48
2021/11/22 09:37:15;;;;;;;3.03;2.83;;;17.20;92.60;;;17.26;46.92;102118.50;4898547;28;99737;-47
2021/11/22 09:39:42;;;;;;;1.40;1.30;;;17.20;95.20;;;17.24;46.90;102125.72;4901561;28;98291;-45
2021/11/22 09:42:08;;;;;;;1.77;1.00;;;17.20;96.20;;;17.30;46.77;102125.47;4916451;28;97463;-48
2021/11/22 09:44:34;;;;;;;1.40;1.30;;;17.40;96.00;;;17.42;46.37;102135.63;4903188;28;98949;-45
2021/11/22 09:47:01;;;;;;;0.93;0.93;;;17.50;95.60;;;17.52;46.49;102147.66;4901156;28;99017;-45
2021/11/22 09:49:27;;;;;;;1.30;1.00;;;17.60;95.40;;;17.54;46.21;102145.81;4919445;28;99187;-49
2021/11/22 09:51:53;;;;;;;1.30;0.90;;;17.70;95.50;;;17.61;46.39;102140.19;4906562;28;99814;-48
2021/11/22 09:54:19;;;;;;;1.80;1.53;;;17.80;95.40;;;17.64;46.18;102140.06;4908863;28;98130;-45
2021/11/22 09:56:52;;;;;;;1.20;1.00;;;17.80;95.20;;;17.65;45.83;102153.38;5054266;27;98675;-46
2021/11/22 09:59:21;;;;;;;1.47;1.37;;;17.80;95.20;;;17.66;45.60;102154.25;5034410;27;98537;-49
2021/11/22 10:01:53;;;;;;;4.40;4.00;;;17.80;94.80;;;17.68;44.99;102149.69;5044383;27;98203;-51
2021/11/22 10:04:19;;;;;;;1.20;1.10;;;17.80;93.70;;;17.71;45.69;102146.94;5038620;27;97468;-43
2021/11/22 10:07:06;;;;;;;2.40;1.80;;;17.80;95.00;;;17.72;45.20;102148.66;5029056;27;97986;-44
2021/11/22 10:09:32;;;;;;;1.50;1.20;;;17.80;93.90;;;17.58;45.23;102146.53;5026325;27;98824;-43
2021/11/22 10:12:24;;;;;;;7.07;5.73;;;17.60;94.10;;;17.00;44.86;102148.00;5035348;27;99713;-48